Time;durP1;ratioP1;P1;durP2;ratioP2;P2;SDS_P1;SDS_P2;PMS_P1;PMS_P2;Temp;Humidity;BMP_temperature;BMP_pressure;BME280_temperature;BME280_humidity;BME280_pressure;Samples;Min_cycle;Max_cycle;Signal;HPM_P1;HPM_P2
2023/02/02 00:00:13;;;;;;;14.57;2.88;;;9.60;99.90;;;;;;5077487;28;20186;-82
2023/02/02 00:02:38;;;;;;;14.35;2.75;;;9.60;99.90;;;;;;5078139;28;20642;-81
2023/02/02 00:05:04;;;;;;;10.57;2.85;;;9.60;99.90;;;;;;5096232;28;20173;-81
2023/02/02 00:07:30;;;;;;;12.55;2.10;;;9.60;99.90;;;;;;5096000;28;20193;-81
2023/02/02 00:09:55;;;;;;;11.77;2.83;;;9.70;99.90;;;;;;5078068;28;20176;-81
2023/02/02 00:12:21;;;;;;;14.07;2.53;;;9.70;99.90;;;;;;5095741;28;20577;-81
2023/02/02 00:14:46;;;;;;;29.00;2.97;;;9.70;99.90;;;;;;5095996;28;20181;-81
2023/02/02 00:17:12;;;;;;;18.88;3.05;;;9.70;99.90;;;;;;5095708;28;20194;-82
2023/02/02 00:19:38;;;;;;;12.68;2.47;;;9.60;99.90;;;;;;5095577;28;20166;-81
2023/02/02 00:22:03;;;;;;;27.73;4.05;;;9.50;99.90;;;;;;5077434;28;20579;-81
2023/02/02 00:24:29;;;;;;;14.35;2.20;;;9.50;99.90;;;;;;5095546;28;20177;-81
2023/02/02 00:26:56;;;;;;;17.77;3.13;;;9.40;99.90;;;;;;5095696;28;20170;-80
2023/02/02 00:29:28;;;;;;;11.05;2.70;;;9.30;99.90;;;;;;5095646;28;20211;-80
2023/02/02 00:31:54;;;;;;;9.35;2.00;;;9.40;99.90;;;;;;5077037;28;20272;-82
2023/02/02 00:34:20;;;;;;;16.02;2.75;;;9.40;99.90;;;;;;5095414;28;20261;-80
2023/02/02 00:36:47;;;;;;;10.02;2.60;;;9.40;99.90;;;;;;5095431;28;20201;-81
2023/02/02 00:39:19;;;;;;;15.60;2.45;;;9.50;99.90;;;;;;5095413;28;20189;-81
2023/02/02 00:41:45;;;;;;;17.05;2.88;;;9.60;99.90;;;;;;5077731;28;20586;-80
2023/02/02 00:46:55;;;;;;;14.25;2.83;;;9.40;99.90;;;;;;5095360;28;20247;-82
2023/02/02 00:49:21;;;;;;;26.75;3.63;;;9.40;99.90;;;;;;5095036;28;20680;-80
2023/02/02 00:51:46;;;;;;;13.70;3.10;;;9.40;99.90;;;;;;5094676;28;20247;-81
2023/02/02 00:54:13;;;;;;;18.17;3.42;;;9.40;99.90;;;;;;5095267;28;20173;-80
2023/02/02 00:56:39;;;;;;;15.90;3.22;;;9.50;99.90;;;;;;5095260;28;20170;-80
2023/02/02 00:59:04;;;;;;;16.88;3.90;;;9.40;99.90;;;;;;5095187;28;20170;-80
2023/02/02 01:01:30;;;;;;;24.35;3.45;;;9.50;99.90;;;;;;5095062;28;20193;-80
2023/02/02 01:03:56;;;;;;;16.45;2.85;;;9.40;99.90;;;;;;5077135;28;20180;-80
2023/02/02 01:06:22;;;;;;;17.40;2.25;;;9.50;99.90;;;;;;5076736;28;20188;-80
2023/02/02 01:08:47;;;;;;;14.73;2.03;;;9.40;99.90;;;;;;5094681;28;20205;-80
2023/02/02 01:11:13;;;;;;;19.63;3.28;;;9.40;99.90;;;;;;5094714;28;20546;-80
2023/02/02 01:13:39;;;;;;;11.07;2.65;;;9.40;99.90;;;;;;5094832;28;20162;-80
2023/02/02 01:16:05;;;;;;;13.90;3.88;;;9.30;99.90;;;;;;5094761;28;20161;-80
2023/02/02 01:18:31;;;;;;;17.65;3.67;;;9.30;99.90;;;;;;5076724;28;20174;-79
2023/02/02 01:21:05;;;;;;;13.73;2.85;;;9.40;99.90;;;;;;5076501;28;20208;-81
2023/02/02 01:23:31;;;;;;;17.73;3.10;;;9.40;99.90;;;;;;5076438;28;20173;-80
2023/02/02 01:25:58;;;;;;;18.90;2.92;;;9.40;99.90;;;;;;5076399;28;21183;-80
2023/02/02 01:28:25;;;;;;;18.17;2.50;;;9.40;99.90;;;;;;5094077;28;20248;-81
2023/02/02 01:30:51;;;;;;;12.35;2.90;;;9.40;99.90;;;;;;5094265;28;20189;-81
2023/02/02 01:33:17;;;;;;;12.15;3.10;;;9.50;99.90;;;;;;5094875;28;20520;-81
2023/02/02 01:35:53;;;;;;;5.57;2.15;;;9.40;99.90;;;;;;5094308;28;20186;-81
2023/02/02 01:38:20;;;;;;;9.55;2.67;;;9.30;99.90;;;;;;5076400;28;20689;-81
2023/02/02 01:40:54;;;;;;;14.98;3.20;;;9.30;99.90;;;;;;5094313;28;20173;-81
2023/02/02 01:43:45;;;;;;;9.98;2.67;;;9.40;99.90;;;;;;5094441;28;20253;-82
2023/02/02 01:46:43;;;;;;;22.92;3.20;;;9.50;99.90;;;;;;5084680;28;20181;-82
2023/02/02 01:49:15;;;;;;;18.83;2.15;;;9.50;99.90;;;;;;5049279;28;20218;-80
2023/02/02 01:51:51;;;;;;;15.98;2.53;;;9.50;99.90;;;;;;5094027;28;20189;-80
2023/02/02 01:54:24;;;;;;;25.90;3.25;;;9.50;99.90;;;;;;5094064;28;20222;-81
2023/02/02 01:56:55;;;;;;;24.52;2.78;;;9.40;99.90;;;;;;5094309;28;20193;-82
2023/02/02 01:59:22;;;;;;;14.02;2.90;;;9.50;99.90;;;;;;5094244;28;20314;-80
2023/02/02 02:01:49;;;;;;;21.58;3.25;;;9.40;99.90;;;;;;5075132;28;20212;-81
2023/02/02 02:04:15;;;;;;;27.67;2.78;;;9.50;99.90;;;;;;5093431;28;20169;-81
2023/02/02 02:09:07;;;;;;;7.78;2.38;;;9.50;99.90;;;;;;5075952;28;20230;-82
2023/02/02 02:11:34;;;;;;;17.90;2.65;;;9.50;99.90;;;;;;5093810;28;20634;-81
2023/02/02 02:17:00;;;;;;;18.25;2.15;;;9.50;99.90;;;;;;5093808;28;20224;-81
2023/02/02 02:26:32;;;;;;;14.23;3.15;;;9.50;99.90;;;;;;5093731;28;20169;-80
2023/02/02 02:29:03;;;;;;;19.63;2.65;;;9.50;99.90;;;;;;5093452;28;20275;-81
2023/02/02 02:31:46;;;;;;;12.90;2.33;;;9.50;99.90;;;;;;5093120;28;20216;-81
2023/02/02 02:34:22;;;;;;;16.50;2.75;;;9.60;99.90;;;;;;5093381;28;20174;-81
2023/02/02 02:37:00;;;;;;;12.35;3.03;;;9.60;99.90;;;;;;5093449;28;20166;-80
2023/02/02 02:39:28;;;;;;;18.27;3.20;;;9.40;99.90;;;;;;5093252;28;20165;-80
2023/02/02 02:41:59;;;;;;;16.80;2.05;;;9.40;99.90;;;;;;5093446;28;20184;-82
2023/02/02 02:44:27;;;;;;;10.45;2.13;;;9.50;99.90;;;;;;5093084;28;20166;-81
2023/02/02 02:46:53;;;;;;;10.65;2.80;;;9.50;99.90;;;;;;5093343;28;20158;-80
2023/02/02 02:49:18;;;;;;;17.25;2.15;;;9.60;99.90;;;;;;5092630;28;20271;-79
2023/02/02 02:51:53;;;;;;;18.35;2.58;;;9.50;99.90;;;;;;5092891;28;20550;-81
2023/02/02 02:54:39;;;;;;;13.05;2.17;;;9.60;99.90;;;;;;5074763;28;20714;-81
2023/02/02 02:57:20;;;;;;;11.73;3.38;;;9.60;99.90;;;;;;5075121;28;20210;-81
2023/02/02 03:00:14;;;;;;;16.23;2.50;;;9.60;99.90;;;;;;5093038;28;20184;-80
2023/02/02 03:03:09;;;;;;;21.40;2.50;;;9.60;99.90;;;;;;5090196;28;20245;-80
2023/02/02 03:05:49;;;;;;;19.35;2.75;;;9.50;99.90;;;;;;5074354;28;20169;-80
2023/02/02 03:08:39;;;;;;;18.90;1.92;;;9.50;99.90;;;;;;5092602;28;20209;-81
2023/02/02 03:11:07;;;;;;;12.32;2.30;;;9.50;99.90;;;;;;5074651;28;20306;-80
2023/02/02 03:13:33;;;;;;;13.85;2.45;;;9.50;99.90;;;;;;5074218;28;20170;-80
2023/02/02 03:15:59;;;;;;;18.23;3.03;;;9.50;99.90;;;;;;5092161;28;20170;-81
2023/02/02 03:18:27;;;;;;;16.48;2.42;;;9.50;99.90;;;;;;5074832;28;20174;-80
2023/02/02 03:20:53;;;;;;;18.40;3.83;;;9.60;99.90;;;;;;5092267;28;20545;-81
2023/02/02 03:23:19;;;;;;;19.13;2.92;;;9.60;99.90;;;;;;5074378;28;20177;-80
2023/02/02 03:25:45;;;;;;;18.67;2.17;;;9.60;99.90;;;;;;5092617;28;20166;-80
2023/02/02 03:28:11;;;;;;;14.32;2.30;;;9.60;99.90;;;;;;5074169;28;20355;-80
2023/02/02 03:30:40;;;;;;;12.13;2.10;;;9.50;99.90;;;;;;5074285;28;20186;-81
2023/02/02 03:33:06;;;;;;;21.13;3.42;;;9.50;99.90;;;;;;5091877;28;20166;-81
2023/02/02 03:35:32;;;;;;;8.95;2.60;;;9.40;99.90;;;;;;5091907;28;20172;-80
2023/02/02 03:37:57;;;;;;;22.70;2.65;;;9.40;99.90;;;;;;5074344;28;20590;-80
2023/02/02 03:40:23;;;;;;;9.98;2.80;;;9.40;99.90;;;;;;5092294;28;20189;-81
2023/02/02 03:42:49;;;;;;;16.75;2.42;;;9.30;99.90;;;;;;5092179;28;20166;-81
2023/02/02 03:45:15;;;;;;;12.20;2.85;;;9.40;99.90;;;;;;5092635;28;20166;-80
2023/02/02 03:47:40;;;;;;;15.48;2.15;;;9.30;99.90;;;;;;5092361;28;20670;-80
2023/02/02 03:50:07;;;;;;;10.10;2.50;;;9.40;99.90;;;;;;5091971;28;20170;-81
2023/02/02 03:52:32;;;;;;;23.08;2.50;;;9.40;99.90;;;;;;5092289;28;20647;-80
2023/02/02 03:54:58;;;;;;;14.07;3.70;;;9.40;99.90;;;;;;5092494;28;20252;-81
2023/02/02 03:57:23;;;;;;;16.42;1.90;;;9.40;99.90;;;;;;5092248;28;20162;-81
2023/02/02 03:59:49;;;;;;;13.68;2.38;;;9.40;99.90;;;;;;5074083;28;20173;-80
2023/02/02 04:02:15;;;;;;;15.20;2.42;;;9.40;99.90;;;;;;5092146;28;20600;-81
2023/02/02 04:04:40;;;;;;;21.27;3.42;;;9.50;99.90;;;;;;5092128;28;20184;-82
2023/02/02 04:07:06;;;;;;;19.80;2.10;;;9.40;99.90;;;;;;5092044;28;20158;-79
2023/02/02 04:09:31;;;;;;;18.75;1.98;;;9.40;99.90;;;;;;5092100;28;20224;-79
2023/02/02 04:11:58;;;;;;;13.15;2.72;;;9.40;99.90;;;;;;5073940;28;20209;-79
2023/02/02 04:14:23;;;;;;;6.57;1.77;;;9.30;99.90;;;;;;5074009;28;20530;-79
2023/02/02 04:16:49;;;;;;;12.70;2.65;;;9.40;99.90;;;;;;5091557;28;20166;-80
2023/02/02 04:19:15;;;;;;;13.88;2.13;;;9.40;99.90;;;;;;5091522;28;20174;-80
2023/02/02 04:21:41;;;;;;;21.58;2.53;;;9.60;99.90;;;;;;5074091;28;20292;-80
2023/02/02 04:24:10;;;;;;;10.88;2.35;;;9.50;99.90;;;;;;5092117;28;20253;-79
2023/02/02 04:26:36;;;;;;;11.73;2.38;;;9.50;99.90;;;;;;5095251;28;20172;-81
2023/02/02 04:29:02;;;;;;;10.30;1.92;;;9.50;99.90;;;;;;5095821;28;20213;-80
2023/02/02 04:31:28;;;;;;;12.77;2.95;;;9.50;99.90;;;;;;5095505;28;20243;-79
2023/02/02 04:33:55;;;;;;;10.32;1.98;;;9.40;99.90;;;;;;5095777;28;20169;-82
2023/02/02 04:36:20;;;;;;;17.77;2.50;;;9.30;99.90;;;;;;5077502;28;20629;-79
2023/02/02 04:38:50;;;;;;;6.63;1.67;;;9.40;99.90;;;;;;5095085;28;20166;-80
2023/02/02 04:41:17;;;;;;;9.93;2.15;;;9.40;99.90;;;;;;5095202;28;20642;-82
2023/02/02 04:43:43;;;;;;;6.15;1.85;;;9.50;99.90;;;;;;5095426;28;20686;-79
2023/02/02 04:46:09;;;;;;;14.73;2.10;;;9.50;99.90;;;;;;5095580;28;20158;-81
2023/02/02 04:48:35;;;;;;;24.70;2.47;;;9.60;99.90;;;;;;5095495;28;20198;-79
2023/02/02 04:51:04;;;;;;;20.52;3.10;;;9.60;99.90;;;;;;5077100;28;20216;-79
2023/02/02 04:53:31;;;;;;;9.43;2.22;;;9.60;99.90;;;;;;5095559;28;20169;-80
2023/02/02 04:55:57;;;;;;;14.48;2.30;;;9.60;99.90;;;;;;5095274;28;20510;-79
2023/02/02 04:58:22;;;;;;;7.35;1.88;;;9.60;99.90;;;;;;5076901;28;20177;-79
2023/02/02 05:00:48;;;;;;;9.00;2.10;;;9.60;99.90;;;;;;5076814;28;20638;-80
2023/02/02 05:03:13;;;;;;;18.23;3.58;;;9.50;99.90;;;;;;5076709;28;20194;-80
2023/02/02 05:05:39;;;;;;;5.22;1.98;;;9.50;99.90;;;;;;5094801;28;20170;-79
2023/02/02 05:08:07;;;;;;;11.75;2.42;;;9.50;99.90;;;;;;5076638;28;20221;-79
2023/02/02 05:10:33;;;;;;;16.85;2.30;;;9.50;99.90;;;;;;5094926;28;20193;-80
2023/02/02 05:12:58;;;;;;;16.35;3.30;;;9.40;99.90;;;;;;5076611;28;20173;-80
2023/02/02 05:15:24;;;;;;;14.18;2.65;;;9.50;99.90;;;;;;5094557;28;20210;-79
2023/02/02 05:17:49;;;;;;;17.38;1.88;;;9.40;99.90;;;;;;5094968;28;20166;-81
2023/02/02 05:20:15;;;;;;;10.85;2.22;;;9.40;99.90;;;;;;5076540;28;20194;-80
2023/02/02 05:22:41;;;;;;;12.02;2.42;;;9.30;99.90;;;;;;5094388;28;20170;-82
2023/02/02 05:25:07;;;;;;;17.42;2.28;;;9.30;99.90;;;;;;5094271;28;20176;-81
2023/02/02 05:27:33;;;;;;;15.70;2.70;;;9.20;99.90;;;;;;5094160;28;20287;-80
2023/02/02 05:29:59;;;;;;;8.85;2.45;;;9.30;99.90;;;;;;5094493;28;20248;-79
2023/02/02 05:32:27;;;;;;;11.70;2.05;;;9.30;99.90;;;;;;5081057;28;20582;-79
2023/02/02 05:34:53;;;;;;;14.30;2.53;;;9.20;99.90;;;;;;5052694;28;20540;-81
2023/02/02 05:37:19;;;;;;;14.18;2.05;;;9.30;99.90;;;;;;5052873;28;20175;-82
2023/02/02 05:39:44;;;;;;;14.35;1.98;;;9.30;99.90;;;;;;5053895;28;20174;-80
2023/02/02 05:42:10;;;;;;;16.83;2.53;;;9.20;99.90;;;;;;5053774;28;20193;-80
2023/02/02 05:44:35;;;;;;;13.75;2.50;;;9.20;99.90;;;;;;5053880;28;20163;-80
2023/02/02 05:47:01;;;;;;;11.15;2.83;;;9.30;99.90;;;;;;5052622;28;20218;-79
2023/02/02 05:49:27;;;;;;;19.33;3.92;;;9.30;99.90;;;;;;5053815;28;20717;-80
2023/02/02 05:51:56;;;;;;;23.52;3.60;;;9.20;99.90;;;;;;5053697;28;20183;-81
2023/02/02 05:54:22;;;;;;;9.23;1.85;;;9.30;99.90;;;;;;5053936;28;20191;-80
2023/02/02 05:56:49;;;;;;;13.90;2.47;;;9.30;99.90;;;;;;5053833;28;20196;-80
2023/02/02 05:59:16;;;;;;;10.27;1.80;;;9.20;99.90;;;;;;5053320;28;20232;-81
2023/02/02 06:01:42;;;;;;;13.90;3.25;;;9.10;99.90;;;;;;5052037;28;20213;-81
2023/02/02 06:04:08;;;;;;;12.68;2.35;;;9.00;99.90;;;;;;5052456;28;20176;-81
2023/02/02 06:06:34;;;;;;;17.88;2.78;;;9.10;99.90;;;;;;5051941;28;20541;-82
2023/02/02 06:09:00;;;;;;;6.18;1.90;;;9.20;99.90;;;;;;5053476;28;20201;-80
2023/02/02 06:11:26;;;;;;;13.20;2.28;;;9.20;99.90;;;;;;5053184;28;20191;-79
2023/02/02 06:13:52;;;;;;;16.77;3.28;;;9.10;99.90;;;;;;5057179;28;20171;-80
2023/02/02 06:16:17;;;;;;;6.72;2.22;;;9.00;99.90;;;;;;5059701;28;20608;-81
2023/02/02 06:18:44;;;;;;;19.38;3.58;;;9.00;99.90;;;;;;5059980;28;20167;-80
2023/02/02 06:21:10;;;;;;;27.27;3.10;;;9.00;99.90;;;;;;5059265;28;20225;-81
2023/02/02 06:23:37;;;;;;;12.20;1.83;;;8.90;99.90;;;;;;5059440;28;20200;-81
2023/02/02 06:26:03;;;;;;;14.07;2.10;;;8.90;99.90;;;;;;5058323;28;20246;-80
2023/02/02 06:28:31;;;;;;;13.60;2.75;;;8.90;99.90;;;;;;5060150;28;20214;-80
2023/02/02 06:31:05;;;;;;;14.98;2.88;;;9.00;99.90;;;;;;5057436;28;20190;-81
2023/02/02 06:33:31;;;;;;;22.38;2.53;;;9.00;99.90;;;;;;5038992;28;20254;-80
2023/02/02 06:36:02;;;;;;;10.43;2.50;;;9.10;99.90;;;;;;5054866;28;20171;-80
2023/02/02 06:38:29;;;;;;;11.10;2.95;;;9.00;99.90;;;;;;5055459;28;20179;-81
2023/02/02 06:41:01;;;;;;;16.08;2.50;;;9.00;99.90;;;;;;5056510;28;20179;-80
2023/02/02 06:43:28;;;;;;;19.65;2.28;;;9.10;99.90;;;;;;5056605;28;20250;-80
2023/02/02 06:45:56;;;;;;;16.27;2.00;;;9.20;99.90;;;;;;5056423;28;20183;-80
2023/02/02 06:48:23;;;;;;;8.77;2.45;;;9.20;99.90;;;;;;5056765;28;20544;-81
2023/02/02 06:50:48;;;;;;;13.52;2.20;;;9.10;99.90;;;;;;5063133;28;20674;-80
2023/02/02 06:53:21;;;;;;;23.83;1.80;;;9.20;99.90;;;;;;5057784;28;20178;-81
2023/02/02 06:55:55;;;;;;;18.15;2.75;;;9.30;99.90;;;;;;5057522;28;20171;-80
2023/02/02 06:58:21;;;;;;;23.48;2.85;;;9.30;99.90;;;;;;5054928;28;20178;-79
2023/02/02 07:00:48;;;;;;;14.70;2.70;;;9.20;99.90;;;;;;5054738;28;20202;-82
2023/02/02 07:03:20;;;;;;;15.10;2.53;;;9.10;99.90;;;;;;5055933;28;20524;-81
2023/02/02 07:05:47;;;;;;;16.40;2.65;;;9.00;99.90;;;;;;5055689;28;20174;-80
2023/02/02 07:08:13;;;;;;;18.63;2.72;;;8.90;99.90;;;;;;5057704;28;20200;-82
2023/02/02 07:10:39;;;;;;;6.30;1.88;;;8.90;99.90;;;;;;5057294;28;20222;-80
2023/02/02 07:13:06;;;;;;;13.15;2.50;;;9.00;99.90;;;;;;5057293;28;20189;-81
2023/02/02 07:15:32;;;;;;;8.60;2.63;;;9.00;99.90;;;;;;5056427;28;20167;-80
2023/02/02 07:17:59;;;;;;;12.93;2.78;;;9.10;99.90;;;;;;5051696;28;20179;-81
2023/02/02 07:20:25;;;;;;;7.53;2.25;;;9.20;99.90;;;;;;5051706;28;20187;-82
2023/02/02 07:22:50;;;;;;;10.30;2.40;;;9.10;99.90;;;;;;5052324;28;20186;-82
2023/02/02 07:25:16;;;;;;;11.65;2.20;;;9.20;99.90;;;;;;5052022;28;20209;-83
2023/02/02 07:27:41;;;;;;;13.50;1.85;;;9.20;99.90;;;;;;5050769;28;20640;-81
2023/02/02 07:30:08;;;;;;;8.68;2.17;;;9.20;99.90;;;;;;5052215;28;20258;-82
2023/02/02 07:32:34;;;;;;;11.77;1.98;;;9.20;99.90;;;;;;5052898;28;20667;-80
2023/02/02 07:34:59;;;;;;;12.50;2.13;;;9.10;99.90;;;;;;5054139;28;20201;-80
2023/02/02 07:37:25;;;;;;;9.95;1.92;;;9.10;99.90;;;;;;5054751;28;20253;-79
2023/02/02 07:39:50;;;;;;;12.55;2.05;;;9.20;99.90;;;;;;5054226;28;20199;-79
2023/02/02 07:42:16;;;;;;;6.80;1.95;;;9.20;99.90;;;;;;5054898;28;20236;-79
2023/02/02 07:44:42;;;;;;;18.10;2.95;;;9.10;99.90;;;;;;5055238;28;20171;-79
2023/02/02 07:47:09;;;;;;;16.63;1.63;;;9.10;99.90;;;;;;5055801;28;20163;-80
2023/02/02 07:49:34;;;;;;;10.60;1.92;;;9.10;99.90;;;;;;5053862;28;20210;-80
2023/02/02 07:52:00;;;;;;;9.30;2.00;;;9.10;99.90;;;;;;5051666;28;20191;-80
2023/02/02 07:54:25;;;;;;;9.65;2.38;;;9.20;99.90;;;;;;5050488;28;20658;-79
2023/02/02 07:56:51;;;;;;;20.90;2.20;;;9.40;99.90;;;;;;5051630;28;20168;-80
2023/02/02 07:59:19;;;;;;;9.18;1.50;;;9.40;99.90;;;;;;5052511;28;20168;-80
2023/02/02 08:01:45;;;;;;;8.60;2.35;;;9.20;99.90;;;;;;5056931;28;20195;-79
2023/02/02 08:04:10;;;;;;;7.13;1.50;;;9.10;99.90;;;;;;5058694;28;20171;-82
2023/02/02 08:06:41;;;;;;;13.57;2.33;;;9.10;99.90;;;;;;5059256;28;20246;-81
2023/02/02 08:09:08;;;;;;;11.80;2.42;;;9.20;99.90;;;;;;5065568;28;20229;-83
2023/02/02 08:11:37;;;;;;;16.02;2.63;;;9.30;99.90;;;;;;5061081;28;20206;-81
2023/02/02 08:14:04;;;;;;;6.82;1.65;;;9.40;99.90;;;;;;5064024;28;20692;-81
2023/02/02 08:16:33;;;;;;;8.43;2.50;;;9.40;99.90;;;;;;5044738;28;20204;-81
2023/02/02 08:18:59;;;;;;;7.18;1.73;;;9.50;99.90;;;;;;5074363;28;20540;-82
2023/02/02 08:21:25;;;;;;;10.45;2.00;;;9.50;99.90;;;;;;5055940;28;20205;-82
2023/02/02 08:23:52;;;;;;;6.38;2.05;;;9.60;99.90;;;;;;5075212;28;20174;-81
2023/02/02 08:26:24;;;;;;;10.95;2.10;;;9.70;99.90;;;;;;5057011;28;20190;-82
2023/02/02 08:28:56;;;;;;;12.48;2.63;;;9.70;99.90;;;;;;5075294;28;20220;-80
2023/02/02 08:31:24;;;;;;;19.17;2.22;;;9.60;99.90;;;;;;5056807;28;20273;-81
2023/02/02 08:33:52;;;;;;;7.60;2.47;;;9.60;99.90;;;;;;5075584;28;20677;-83
2023/02/02 08:36:20;;;;;;;10.48;2.67;;;9.70;99.90;;;;;;5075208;28;20273;-83
2023/02/02 08:38:46;;;;;;;15.27;2.70;;;9.80;99.90;;;;;;5075574;28;20158;-82
2023/02/02 08:41:14;;;;;;;12.50;1.83;;;9.80;99.90;;;;;;5074746;28;20198;-82
2023/02/02 08:43:40;;;;;;;12.55;2.72;;;9.80;99.90;;;;;;5074472;28;20171;-85
2023/02/02 08:46:07;;;;;;;12.18;2.75;;;9.90;99.90;;;;;;5075688;28;20189;-81
2023/02/02 08:48:34;;;;;;;7.88;1.83;;;10.00;99.90;;;;;;5075055;28;20295;-81
2023/02/02 08:51:00;;;;;;;13.90;1.80;;;10.00;99.90;;;;;;5073126;28;20281;-84
2023/02/02 08:53:27;;;;;;;9.30;1.83;;;10.00;99.90;;;;;;5075296;28;20183;-82
2023/02/02 08:56:13;;;;;;;11.95;1.85;;;10.00;99.90;;;;;;5075543;28;20644;-82
2023/02/02 08:58:39;;;;;;;7.22;1.52;;;9.90;99.90;;;;;;5075169;28;20163;-83
2023/02/02 09:01:12;;;;;;;11.30;1.80;;;9.90;99.90;;;;;;5074257;28;20200;-82
2023/02/02 09:03:39;;;;;;;9.32;1.73;;;10.00;99.90;;;;;;5073715;28;20179;-82
2023/02/02 09:06:06;;;;;;;12.52;2.17;;;9.90;99.90;;;;;;5056352;28;20167;-83
2023/02/02 09:08:32;;;;;;;6.07;2.03;;;10.00;99.90;;;;;;5056580;28;20202;-83
2023/02/02 09:11:19;;;;;;;10.27;2.03;;;10.00;99.90;;;;;;5074510;28;20190;-83
2023/02/02 09:13:49;;;;;;;17.95;2.17;;;9.90;99.90;;;;;;5094626;28;20211;-82
2023/02/02 09:16:17;;;;;;;14.90;1.75;;;10.00;99.90;;;;;;5094686;28;20176;-82
2023/02/02 09:18:43;;;;;;;15.43;1.50;;;10.00;99.90;;;;;;5076301;28;20162;-82
2023/02/02 09:21:11;;;;;;;7.13;2.03;;;10.10;99.90;;;;;;5076088;28;20195;-83
2023/02/02 09:23:38;;;;;;;11.02;2.80;;;10.20;99.90;;;;;;5095143;28;20188;-82
2023/02/02 09:26:11;;;;;;;15.98;2.92;;;10.20;99.90;;;;;;5093436;28;20181;-81
2023/02/02 09:28:39;;;;;;;6.60;1.98;;;10.20;99.90;;;;;;5094625;28;20292;-82
2023/02/02 09:31:05;;;;;;;9.90;1.95;;;10.20;99.90;;;;;;5076410;28;20182;-85
2023/02/02 09:33:31;;;;;;;7.75;2.13;;;10.40;99.90;;;;;;5076514;28;20212;-82
2023/02/02 09:36:04;;;;;;;11.68;1.65;;;10.40;99.90;;;;;;5076546;28;20201;-83
2023/02/02 09:38:29;;;;;;;5.75;1.70;;;10.40;99.90;;;;;;5094849;28;20162;-83
2023/02/02 09:40:55;;;;;;;8.73;1.90;;;10.40;99.90;;;;;;5094421;28;20525;-82
2023/02/02 09:43:47;;;;;;;11.63;1.65;;;10.40;99.90;;;;;;5095898;28;20677;-84
2023/02/02 09:46:33;;;;;;;9.07;2.15;;;10.50;99.90;;;;;;5082249;28;20166;-81
2023/02/02 09:49:09;;;;;;;15.40;2.13;;;10.70;99.90;;;;;;5106462;28;20198;-79
2023/02/02 09:51:40;;;;;;;4.97;2.20;;;10.80;99.90;;;;;;5096991;28;20181;-80
2023/02/02 09:54:19;;;;;;;10.40;1.75;;;10.80;99.90;;;;;;5077180;28;20165;-83
2023/02/02 09:56:50;;;;;;;13.40;2.03;;;10.70;99.90;;;;;;5094718;28;20176;-81
2023/02/02 09:59:22;;;;;;;9.30;1.98;;;10.80;99.90;;;;;;5094723;28;20169;-81
2023/02/02 10:01:54;;;;;;;8.05;1.92;;;10.90;99.90;;;;;;5094186;28;20194;-81
2023/02/02 10:04:35;;;;;;;12.57;1.92;;;11.00;99.90;;;;;;5076543;28;20162;-81
2023/02/02 10:07:08;;;;;;;10.95;2.30;;;11.10;99.90;;;;;;5094221;28;20178;-80
2023/02/02 10:09:46;;;;;;;8.40;1.80;;;11.20;99.90;;;;;;5093790;28;20205;-80
2023/02/02 10:12:32;;;;;;;10.98;1.65;;;11.10;99.90;;;;;;5094008;28;20185;-82
2023/02/02 10:15:01;;;;;;;7.10;2.08;;;11.00;99.90;;;;;;5094557;28;20196;-81
2023/02/02 10:17:37;;;;;;;6.53;1.60;;;11.00;99.90;;;;;;5093856;28;20165;-83
2023/02/02 10:20:13;;;;;;;23.77;3.05;;;11.10;99.90;;;;;;5093814;28;20201;-80
2023/02/02 10:22:40;;;;;;;9.75;1.90;;;10.90;99.90;;;;;;5068592;28;20174;-81
2023/02/02 10:25:11;;;;;;;13.00;2.20;;;10.90;99.90;;;;;;5052456;28;20167;-81
2023/02/02 10:27:39;;;;;;;7.43;1.95;;;10.90;99.90;;;;;;5082342;22;20218;-78
2023/02/02 10:30:32;;;;;;;13.25;1.50;;;10.80;99.90;;;;;;5071821;28;20565;-78
2023/02/02 10:33:09;;;;;;;6.43;1.80;;;10.90;99.90;;;;;;5073132;28;20244;-78
2023/02/02 10:35:48;;;;;;;8.73;2.42;;;11.10;99.90;;;;;;5071453;28;20265;-79
2023/02/02 10:38:30;;;;;;;17.30;2.47;;;11.30;99.90;;;;;;5072878;28;20170;-78
2023/02/02 10:41:22;;;;;;;3.15;1.40;;;11.30;99.90;;;;;;5072924;28;20182;-78
2023/02/02 10:44:19;;;;;;;10.90;2.53;;;11.40;99.90;;;;;;5072590;28;20554;-79
2023/02/02 10:46:50;;;;;;;21.13;1.55;;;11.30;99.90;;;;;;5063677;28;20175;-83
2023/02/02 10:49:34;;;;;;;5.95;2.10;;;11.40;99.90;;;;;;5071214;28;20209;-80
2023/02/02 10:52:21;;;;;;;20.52;2.40;;;11.40;99.90;;;;;;5064080;28;20191;-77
2023/02/02 10:55:09;;;;;;;7.18;1.55;;;11.50;99.90;;;;;;5071016;28;20235;-79
2023/02/02 10:57:56;;;;;;;7.70;1.95;;;11.40;99.90;;;;;;5052616;28;20190;-79
2023/02/02 11:00:29;;;;;;;6.78;2.28;;;11.30;99.90;;;;;;5069781;28;20190;-79
2023/02/02 11:02:55;;;;;;;11.77;2.15;;;11.50;99.90;;;;;;5070518;28;20182;-78
2023/02/02 11:08:12;;;;;;;6.15;3.70;;;11.30;99.90;;;;;;5071291;28;20248;-80
2023/02/02 11:10:38;;;;;;;16.58;3.13;;;11.30;99.90;;;;;;5071434;28;20198;-79
2023/02/02 11:13:07;;;;;;;11.00;3.80;;;11.10;99.90;;;;;;5071448;28;20174;-79
2023/02/02 11:15:33;;;;;;;9.75;3.95;;;11.30;99.90;;;;;;5070237;28;20198;-80
2023/02/02 11:18:37;;;;;;;5.78;2.28;;;11.30;99.90;;;;;;5071331;28;20206;-78
2023/02/02 11:21:20;;;;;;;8.02;2.13;;;11.10;99.90;;;;;;5029635;28;20203;-78
2023/02/02 11:24:04;;;;;;;8.48;2.45;;;11.10;99.90;;;;;;5029689;28;20206;-84
2023/02/02 11:26:57;;;;;;;14.43;2.00;;;11.00;99.90;;;;;;5059551;28;20197;-79
2023/02/02 11:29:32;;;;;;;11.48;2.35;;;10.90;99.90;;;;;;5071917;28;20252;-78
2023/02/02 11:32:34;;;;;;;9.68;1.67;;;10.90;99.90;;;;;;5070709;28;20192;-78
2023/02/02 11:35:05;;;;;;;11.20;1.50;;;10.90;99.90;;;;;;5071857;28;20174;-83
2023/02/02 11:37:52;;;;;;;17.80;5.05;;;10.90;99.90;;;;;;5072312;28;20579;-78
2023/02/02 11:40:30;;;;;;;8.27;2.42;;;11.10;99.90;;;;;;5071232;28;20697;-78
2023/02/02 11:42:58;;;;;;;11.98;2.42;;;11.00;99.90;;;;;;5071797;28;20239;-78
2023/02/02 11:45:34;;;;;;;7.15;3.33;;;11.10;99.90;;;;;;5070724;28;20497;-78
2023/02/02 11:48:26;;;;;;;3.75;1.65;;;11.20;99.90;;;;;;5071853;28;20753;-78
2023/02/02 11:50:55;;;;;;;6.20;1.80;;;11.20;99.90;;;;;;5071802;28;20202;-79
2023/02/02 11:53:29;;;;;;;12.27;2.03;;;11.40;99.90;;;;;;5071437;28;20174;-79
2023/02/02 11:55:57;;;;;;;12.77;2.28;;;11.30;99.90;;;;;;5071780;28;20622;-79
2023/02/02 11:58:27;;;;;;;13.73;2.75;;;11.40;99.90;;;;;;5071690;28;20173;-80
2023/02/02 12:00:59;;;;;;;3.58;1.35;;;11.50;99.90;;;;;;5071122;28;20185;-79
2023/02/02 12:03:30;;;;;;;12.07;2.20;;;11.60;99.90;;;;;;5071700;28;20563;-79
2023/02/02 12:05:57;;;;;;;5.63;1.85;;;11.60;99.90;;;;;;5066023;28;20186;-85
2023/02/02 12:08:23;;;;;;;12.00;1.88;;;11.50;99.90;;;;;;5070421;28;20190;-80
2023/02/02 12:11:02;;;;;;;4.80;1.90;;;11.60;99.90;;;;;;5071902;28;20206;-84
2023/02/02 12:13:42;;;;;;;15.10;2.35;;;11.70;99.90;;;;;;5071856;28;20563;-85
2023/02/02 12:16:52;;;;;;;10.32;1.45;;;11.80;99.90;;;;;;5070319;28;20605;-79
2023/02/02 12:19:23;;;;;;;4.55;1.65;;;11.80;99.90;;;;;;5071764;28;20178;-84
2023/02/02 12:21:51;;;;;;;6.05;2.15;;;11.70;99.90;;;;;;5071085;28;20232;-79
2023/02/02 12:24:31;;;;;;;9.23;2.70;;;11.70;99.90;;;;;;5069692;28;20541;-81
2023/02/02 12:27:09;;;;;;;4.90;1.40;;;11.80;99.90;;;;;;5070203;28;20549;-84
2023/02/02 12:29:41;;;;;;;10.90;1.88;;;11.90;99.90;;;;;;5070268;28;20694;-82
2023/02/02 12:32:57;;;;;;;6.82;2.08;;;12.00;99.90;;;;;;5070348;28;20191;-80
2023/02/02 12:36:20;;;;;;;5.47;1.55;;;12.20;99.90;;;;;;5035689;28;20175;-81
2023/02/02 12:38:57;;;;;;;12.55;1.83;;;12.30;99.90;;;;;;5028982;28;20550;-82
2023/02/02 12:41:43;;;;;;;6.47;1.42;;;12.40;99.90;;;;;;5031599;28;20234;-81
2023/02/02 12:44:33;;;;;;;15.85;3.38;;;12.40;99.90;;;;;;5058002;28;20262;-81
2023/02/02 12:47:27;;;;;;;16.90;3.30;;;12.30;99.90;;;;;;5073114;28;20208;-80
2023/02/02 12:50:01;;;;;;;7.70;1.73;;;12.20;99.90;;;;;;5073857;28;20210;-81
2023/02/02 12:52:50;;;;;;;11.95;2.13;;;11.80;99.90;;;;;;5075293;28;20163;-81
2023/02/02 12:55:18;;;;;;;7.05;2.10;;;11.80;99.90;;;;;;5074772;28;20246;-80
2023/02/02 12:57:49;;;;;;;3.00;1.52;;;11.80;99.90;;;;;;5073593;28;20623;-81
2023/02/02 13:00:34;;;;;;;6.45;2.33;;;11.90;99.90;;;;;;5073357;28;20193;-81
2023/02/02 13:03:26;;;;;;;3.65;2.00;;;11.90;99.90;;;;;;5073913;28;20669;-81
2023/02/02 13:05:57;;;;;;;5.78;2.15;;;12.00;99.90;;;;;;5073680;28;20182;-80
2023/02/02 13:08:26;;;;;;;8.15;2.13;;;12.00;99.90;;;;;;5074906;28;20213;-81
2023/02/02 13:10:59;;;;;;;4.95;1.45;;;11.90;99.90;;;;;;5073324;28;20256;-81
2023/02/02 13:13:36;;;;;;;7.22;2.08;;;11.90;99.90;;;;;;5073198;28;20167;-80
2023/02/02 13:16:07;;;;;;;5.35;1.92;;;11.90;99.90;;;;;;5074689;28;20584;-80
2023/02/02 13:18:47;;;;;;;6.85;2.10;;;11.90;99.90;;;;;;5074587;28;20261;-80
2023/02/02 13:21:15;;;;;;;9.80;1.83;;;11.90;99.90;;;;;;5073105;28;20189;-80